PWSweather.com
Personal Weather Stations
Station Observations
BERGSLAGEN
Bergslagen, NoraSE

BergslagenNoraSE

Lat: 59.532278, Lon: 15.016132

Elevation: 492

Station Type: Davis Vantage Pro2 Plus Wireless

http://www.weather.tallasen.se

High Low Average
Temperature 32.4°F0.2°C 26.2°F-3.2°C 30.8°F-0.7°C
Dew Point 31.3°F-0.4°C 24.0°F-4.4°C 29.2°F-1.6°C
Winds 4.0 mph 6.4 kmh Calm Calm 1.0 mph SSE1.6 kmh SSE
Wind Gusts 11.0 mph17.7 kmh -- 4.0 mph6.4 kmh
Humidity 96% 86% 94%
Pressure 29.95 in1014.2 mb 29.40 in995.6 mb -
Precipitation 0.02 in0.5 mm - -
Hour Temp Dew Point Humidity Winds Wind Gusts Pressure Precip Precip Rate Daily Precip Total
12:00 AM 32.2°F0.1°C 31.2°F-0.4°C 96% Calm Calm -- 29.40 in995.6 mb 0.00 in0.0 mm 0.00 in0.0 mm 0.00 in0.0 mm
12:15 AM 32.2°F0.1°C 31.2°F-0.4°C 96% Calm Calm -- 29.40 in995.6 mb 0.00 in0.0 mm 0.00 in0.0 mm 0.00 in0.0 mm
12:30 AM 32.2°F0.1°C 31.2°F-0.4°C 96% Calm Calm -- 29.41 in995.9 mb 0.00 in0.0 mm 0.00 in0.0 mm 0.00 in0.0 mm
12:45 AM 32.2°F0.1°C 31.2°F-0.4°C 96% Calm Calm -- 29.42 in996.3 mb 0.00 in0.0 mm 0.00 in0.0 mm 0.00 in0.0 mm
01:00 AM 32.2°F0.1°C 31.2°F-0.4°C 96% Calm Calm -- 29.43 in996.6 mb 0.00 in0.0 mm 0.00 in0.0 mm 0.00 in0.0 mm
01:15 AM 32.2°F0.1°C 31.2°F-0.4°C 96% Calm Calm -- 29.43 in996.6 mb 0.00 in0.0 mm 0.00 in0.0 mm 0.00 in0.0 mm
01:30 AM 32.2°F0.1°C 31.2°F-0.4°C 96% Calm Calm -- 29.45 in997.3 mb 0.00 in0.0 mm 0.00 in0.0 mm 0.00 in0.0 mm
01:45 AM 32.2°F0.1°C 31.2°F-0.4°C 96% Calm Calm -- 29.45 in997.3 mb 0.00 in0.0 mm 0.00 in0.0 mm 0.00 in0.0 mm
02:00 AM 32.0°F0.0°C 31.0°F-0.6°C 96% Calm Calm -- 29.46 in997.6 mb 0.00 in0.0 mm 0.00 in0.0 mm 0.00 in0.0 mm
02:15 AM 31.6°F-0.2°C 30.6°F-0.8°C 96% Calm Calm -- 29.46 in997.6 mb 0.00 in0.0 mm 0.00 in0.0 mm 0.00 in0.0 mm
02:30 AM 31.3°F-0.4°C 30.3°F-0.9°C 96% Calm Calm -- 29.47 in998.0 mb 0.00 in0.0 mm 0.00 in0.0 mm 0.00 in0.0 mm
02:45 AM 31.8°F-0.1°C 30.8°F-0.7°C 96% 2.0 mph WSW3.2 kmh WSW 5.0 mph8.0 kmh 29.48 in998.3 mb 0.00 in0.0 mm 0.00 in0.0 mm 0.00 in0.0 mm
03:00 AM 31.8°F-0.1°C 30.8°F-0.7°C 96% 1.0 mph WSW1.6 kmh WSW 3.0 mph4.8 kmh 29.48 in998.3 mb 0.00 in0.0 mm 0.00 in0.0 mm 0.00 in0.0 mm
03:15 AM 31.8°F-0.1°C 30.8°F-0.7°C 96% 1.0 mph WSW1.6 kmh WSW 3.0 mph4.8 kmh 29.50 in999.0 mb 0.00 in0.0 mm 0.00 in0.0 mm 0.00 in0.0 mm
03:30 AM 32.2°F0.1°C 31.2°F-0.4°C 96% 1.0 mph WSW1.6 kmh WSW 3.0 mph4.8 kmh 29.50 in999.0 mb 0.00 in0.0 mm 0.00 in0.0 mm 0.00 in0.0 mm
03:45 AM 32.4°F0.2°C 31.3°F-0.4°C 96% 1.0 mph WSW1.6 kmh WSW 4.0 mph6.4 kmh 29.51 in999.3 mb 0.00 in0.0 mm 0.00 in0.0 mm 0.00 in0.0 mm
04:00 AM 32.4°F0.2°C 31.3°F-0.4°C 96% 1.0 mph W1.6 kmh W 4.0 mph6.4 kmh 29.51 in999.3 mb 0.00 in0.0 mm 0.00 in0.0 mm 0.00 in0.0 mm
04:15 AM 32.4°F0.2°C 31.3°F-0.4°C 96% 2.0 mph W3.2 kmh W 4.0 mph6.4 kmh 29.52 in999.7 mb 0.00 in0.0 mm 0.00 in0.0 mm 0.00 in0.0 mm
04:30 AM 32.4°F0.2°C 31.3°F-0.4°C 96% 2.0 mph W3.2 kmh W 5.0 mph8.0 kmh 29.53 in1000.0 mb 0.00 in0.0 mm 0.00 in0.0 mm 0.00 in0.0 mm
04:45 AM 32.4°F0.2°C 31.3°F-0.4°C 96% 2.0 mph W3.2 kmh W 5.0 mph8.0 kmh 29.53 in1000.0 mb 0.00 in0.0 mm 0.00 in0.0 mm 0.00 in0.0 mm
05:00 AM 32.4°F0.2°C 31.3°F-0.4°C 96% 1.0 mph WSW1.6 kmh WSW 4.0 mph6.4 kmh 29.54 in1000.3 mb 0.00 in0.0 mm 0.00 in0.0 mm 0.00 in0.0 mm
05:15 AM 32.4°F0.2°C 31.3°F-0.4°C 96% 2.0 mph WSW3.2 kmh WSW 5.0 mph8.0 kmh 29.54 in1000.3 mb 0.00 in0.0 mm 0.00 in0.0 mm 0.00 in0.0 mm
05:30 AM 32.4°F0.2°C 31.3°F-0.4°C 96% 2.0 mph WSW3.2 kmh WSW 5.0 mph8.0 kmh 29.55 in1000.7 mb 0.00 in0.0 mm 0.00 in0.0 mm 0.00 in0.0 mm
05:45 AM 32.4°F0.2°C 31.3°F-0.4°C 96% 1.0 mph WSW1.6 kmh WSW 5.0 mph8.0 kmh 29.56 in1001.0 mb 0.00 in0.0 mm 0.00 in0.0 mm 0.00 in0.0 mm
06:00 AM 32.4°F0.2°C 31.3°F-0.4°C 96% 2.0 mph WSW3.2 kmh WSW 4.0 mph6.4 kmh 29.56 in1001.0 mb 0.00 in0.0 mm 0.00 in0.0 mm 0.00 in0.0 mm
06:15 AM 32.4°F0.2°C 31.3°F-0.4°C 96% 3.0 mph WSW4.8 kmh WSW 8.0 mph12.9 kmh 29.57 in1001.4 mb 0.00 in0.0 mm 0.00 in0.0 mm 0.00 in0.0 mm
06:30 AM 32.4°F0.2°C 31.3°F-0.4°C 96% 2.0 mph WSW3.2 kmh WSW 6.0 mph9.7 kmh 29.57 in1001.4 mb 0.00 in0.0 mm 0.00 in0.0 mm 0.00 in0.0 mm
06:45 AM 32.2°F0.1°C 31.2°F-0.4°C 96% 3.0 mph WSW4.8 kmh WSW 7.0 mph11.3 kmh 29.58 in1001.7 mb 0.00 in0.0 mm 0.00 in0.0 mm 0.00 in0.0 mm
07:00 AM 32.2°F0.1°C 31.2°F-0.4°C 96% 2.0 mph WSW3.2 kmh WSW 6.0 mph9.7 kmh 29.59 in1002.0 mb 0.00 in0.0 mm 0.00 in0.0 mm 0.00 in0.0 mm
07:15 AM 32.2°F0.1°C 31.2°F-0.4°C 96% 2.0 mph WSW3.2 kmh WSW 6.0 mph9.7 kmh 29.59 in1002.0 mb 0.00 in0.0 mm 0.00 in0.0 mm 0.00 in0.0 mm
07:30 AM 32.0°F0.0°C 31.0°F-0.6°C 96% 3.0 mph WSW4.8 kmh WSW 7.0 mph11.3 kmh 29.60 in1002.4 mb 0.00 in0.0 mm 0.00 in0.0 mm 0.00 in0.0 mm
07:45 AM 32.0°F0.0°C 31.0°F-0.6°C 96% 2.0 mph WSW3.2 kmh WSW 7.0 mph11.3 kmh 29.61 in1002.7 mb 0.00 in0.0 mm 0.00 in0.0 mm 0.00 in0.0 mm
08:00 AM 31.8°F-0.1°C 30.8°F-0.7°C 96% 2.0 mph WSW3.2 kmh WSW 6.0 mph9.7 kmh 29.62 in1003.0 mb 0.00 in0.0 mm 0.00 in0.0 mm 0.00 in0.0 mm
08:15 AM 31.8°F-0.1°C 30.8°F-0.7°C 96% 2.0 mph WSW3.2 kmh WSW 6.0 mph9.7 kmh 29.62 in1003.0 mb 0.00 in0.0 mm 0.00 in0.0 mm 0.00 in0.0 mm
08:30 AM 31.8°F-0.1°C 30.8°F-0.7°C 96% 2.0 mph WSW3.2 kmh WSW 5.0 mph8.0 kmh 29.63 in1003.4 mb 0.00 in0.0 mm 0.00 in0.0 mm 0.00 in0.0 mm
08:45 AM 31.8°F-0.1°C 30.8°F-0.7°C 96% 2.0 mph WSW3.2 kmh WSW 4.0 mph6.4 kmh 29.64 in1003.7 mb 0.00 in0.0 mm 0.00 in0.0 mm 0.00 in0.0 mm
09:00 AM 31.8°F-0.1°C 30.8°F-0.7°C 96% 1.0 mph WSW1.6 kmh WSW 5.0 mph8.0 kmh 29.65 in1004.1 mb 0.00 in0.0 mm 0.00 in0.0 mm 0.00 in0.0 mm
09:15 AM 31.8°F-0.1°C 30.6°F-0.8°C 95% 2.0 mph W3.2 kmh W 6.0 mph9.7 kmh 29.66 in1004.4 mb 0.00 in0.0 mm 0.00 in0.0 mm 0.00 in0.0 mm
09:30 AM 31.6°F-0.2°C 30.4°F-0.9°C 95% 3.0 mph W4.8 kmh W 6.0 mph9.7 kmh 29.67 in1004.7 mb 0.00 in0.0 mm 0.00 in0.0 mm 0.00 in0.0 mm
09:45 AM 31.6°F-0.2°C 30.4°F-0.9°C 95% 3.0 mph W4.8 kmh W 7.0 mph11.3 kmh 29.67 in1004.7 mb 0.00 in0.0 mm 0.00 in0.0 mm 0.00 in0.0 mm
10:00 AM 31.5°F-0.3°C 30.2°F-1.0°C 95% 2.0 mph W3.2 kmh W 7.0 mph11.3 kmh 29.68 in1005.1 mb 0.00 in0.0 mm 0.00 in0.0 mm 0.00 in0.0 mm
10:15 AM 31.5°F-0.3°C 30.2°F-1.0°C 95% 3.0 mph W4.8 kmh W 9.0 mph14.5 kmh 29.68 in1005.1 mb 0.00 in0.0 mm 0.00 in0.0 mm 0.00 in0.0 mm
10:30 AM 31.6°F-0.2°C 30.4°F-0.9°C 95% 3.0 mph WSW4.8 kmh WSW 7.0 mph11.3 kmh 29.69 in1005.4 mb 0.00 in0.0 mm 0.00 in0.0 mm 0.00 in0.0 mm
10:45 AM 31.6°F-0.2°C 30.1°F-1.1°C 94% 3.0 mph W4.8 kmh W 10.0 mph16.1 kmh 29.70 in1005.8 mb 0.00 in0.0 mm 0.00 in0.0 mm 0.00 in0.0 mm
11:00 AM 31.5°F-0.3°C 29.9°F-1.2°C 94% 3.0 mph WSW4.8 kmh WSW 6.0 mph9.7 kmh 29.70 in1005.8 mb 0.00 in0.0 mm 0.00 in0.0 mm 0.00 in0.0 mm
11:15 AM 31.5°F-0.3°C 29.9°F-1.2°C 94% 3.0 mph WSW4.8 kmh WSW 9.0 mph14.5 kmh 29.71 in1006.1 mb 0.00 in0.0 mm 0.00 in0.0 mm 0.00 in0.0 mm
11:30 AM 31.6°F-0.2°C 30.1°F-1.1°C 94% 3.0 mph WSW4.8 kmh WSW 7.0 mph11.3 kmh 29.71 in1006.1 mb 0.01 in0.3 mm 0.04 in1.0 mm 0.01 in0.3 mm
11:45 AM 31.6°F-0.2°C 30.1°F-1.1°C 94% 2.0 mph WSW3.2 kmh WSW 5.0 mph8.0 kmh 29.72 in1006.4 mb 0.01 in0.3 mm 0.00 in0.0 mm 0.01 in0.3 mm
12:00 PM 31.6°F-0.2°C 30.1°F-1.1°C 94% 1.0 mph WSW1.6 kmh WSW 5.0 mph8.0 kmh 29.73 in1006.8 mb 0.01 in0.3 mm 0.00 in0.0 mm 0.01 in0.3 mm
12:15 PM 31.5°F-0.3°C 29.7°F-1.3°C 93% 2.0 mph W3.2 kmh W 6.0 mph9.7 kmh 29.73 in1006.8 mb 0.02 in0.5 mm 0.04 in1.0 mm 0.02 in0.5 mm
12:30 PM 31.6°F-0.2°C 29.8°F-1.2°C 93% 2.0 mph W3.2 kmh W 5.0 mph8.0 kmh 29.73 in1006.8 mb 0.01 in0.3 mm 0.00 in0.0 mm 0.02 in0.5 mm
12:45 PM 31.6°F-0.2°C 29.6°F-1.3°C 92% 2.0 mph WSW3.2 kmh WSW 4.0 mph6.4 kmh 29.74 in1007.1 mb 0.01 in0.3 mm 0.00 in0.0 mm 0.02 in0.5 mm
01:00 PM 31.8°F-0.1°C 29.8°F-1.2°C 92% 2.0 mph WSW3.2 kmh WSW 6.0 mph9.7 kmh 29.75 in1007.5 mb 0.01 in0.3 mm 0.00 in0.0 mm 0.02 in0.5 mm
01:15 PM 31.8°F-0.1°C 29.8°F-1.2°C 92% 2.0 mph WSW3.2 kmh WSW 9.0 mph14.5 kmh 29.75 in1007.5 mb 0.01 in0.3 mm 0.00 in0.0 mm 0.02 in0.5 mm
01:30 PM 32.0°F0.0°C 29.9°F-1.2°C 92% 1.0 mph WSW1.6 kmh WSW 5.0 mph8.0 kmh 29.75 in1007.5 mb 0.01 in0.3 mm 0.00 in0.0 mm 0.02 in0.5 mm
01:45 PM 32.0°F0.0°C 29.7°F-1.3°C 91% 2.0 mph W3.2 kmh W 7.0 mph11.3 kmh 29.75 in1007.5 mb 0.01 in0.3 mm 0.00 in0.0 mm 0.02 in0.5 mm
02:00 PM 32.2°F0.1°C 29.8°F-1.2°C 91% 2.0 mph W3.2 kmh W 6.0 mph9.7 kmh 29.76 in1007.8 mb 0.01 in0.3 mm 0.00 in0.0 mm 0.02 in0.5 mm
02:15 PM 32.2°F0.1°C 29.8°F-1.2°C 91% 3.0 mph WSW4.8 kmh WSW 7.0 mph11.3 kmh 29.76 in1007.8 mb 0.00 in0.0 mm 0.00 in0.0 mm 0.02 in0.5 mm
02:30 PM 31.8°F-0.1°C 29.2°F-1.6°C 90% 3.0 mph WSW4.8 kmh WSW 9.0 mph14.5 kmh 29.76 in1007.8 mb 0.00 in0.0 mm 0.00 in0.0 mm 0.02 in0.5 mm
02:45 PM 31.6°F-0.2°C 28.8°F-1.8°C 89% 3.0 mph WSW4.8 kmh WSW 8.0 mph12.9 kmh 29.77 in1008.1 mb 0.00 in0.0 mm 0.00 in0.0 mm 0.02 in0.5 mm
03:00 PM 31.6°F-0.2°C 28.5°F-1.9°C 88% 4.0 mph WSW6.4 kmh WSW 10.0 mph16.1 kmh 29.78 in1008.5 mb 0.00 in0.0 mm 0.00 in0.0 mm 0.02 in0.5 mm
03:15 PM 31.6°F-0.2°C 28.5°F-1.9°C 88% 4.0 mph W6.4 kmh W 9.0 mph14.5 kmh 29.78 in1008.5 mb 0.00 in0.0 mm 0.00 in0.0 mm 0.02 in0.5 mm
03:30 PM 31.5°F-0.3°C 28.3°F-2.1°C 88% 3.0 mph WSW4.8 kmh WSW 7.0 mph11.3 kmh 29.79 in1008.8 mb 0.00 in0.0 mm 0.00 in0.0 mm 0.02 in0.5 mm
03:45 PM 31.3°F-0.4°C 28.1°F-2.2°C 88% 3.0 mph WSW4.8 kmh WSW 6.0 mph9.7 kmh 29.80 in1009.1 mb 0.00 in0.0 mm 0.00 in0.0 mm 0.02 in0.5 mm
04:00 PM 30.9°F-0.6°C 27.5°F-2.5°C 87% 4.0 mph WSW6.4 kmh WSW 11.0 mph17.7 kmh 29.80 in1009.1 mb 0.00 in0.0 mm 0.00 in0.0 mm 0.02 in0.5 mm
04:15 PM 30.6°F-0.8°C 26.9°F-2.8°C 86% 2.0 mph W3.2 kmh W 7.0 mph11.3 kmh 29.81 in1009.5 mb 0.00 in0.0 mm 0.00 in0.0 mm 0.02 in0.5 mm
04:30 PM 30.4°F-0.9°C 26.7°F-2.9°C 86% 1.0 mph W1.6 kmh W 5.0 mph8.0 kmh 29.81 in1009.5 mb 0.00 in0.0 mm 0.00 in0.0 mm 0.02 in0.5 mm
04:45 PM 29.8°F-1.2°C 26.4°F-3.1°C 87% 1.0 mph W1.6 kmh W 3.0 mph4.8 kmh 29.82 in1009.8 mb 0.00 in0.0 mm 0.00 in0.0 mm 0.02 in0.5 mm
05:00 PM 29.3°F-1.5°C 26.2°F-3.2°C 88% Calm Calm 3.0 mph4.8 kmh 29.83 in1010.2 mb 0.00 in0.0 mm 0.00 in0.0 mm 0.02 in0.5 mm
05:15 PM 28.9°F-1.7°C 26.1°F-3.3°C 89% Calm Calm 3.0 mph4.8 kmh 29.84 in1010.5 mb 0.00 in0.0 mm 0.00 in0.0 mm 0.02 in0.5 mm
05:30 PM 28.2°F-2.1°C 25.4°F-3.7°C 89% Calm Calm 1.0 mph1.6 kmh 29.84 in1010.5 mb 0.00 in0.0 mm 0.00 in0.0 mm 0.02 in0.5 mm
05:45 PM 28.0°F-2.2°C 25.5°F-3.6°C 90% Calm Calm 1.0 mph1.6 kmh 29.84 in1010.5 mb 0.00 in0.0 mm 0.00 in0.0 mm 0.02 in0.5 mm
06:00 PM 27.5°F-2.5°C 25.0°F-3.9°C 90% Calm Calm 1.0 mph1.6 kmh 29.85 in1010.8 mb 0.00 in0.0 mm 0.00 in0.0 mm 0.02 in0.5 mm
06:15 PM 27.0°F-2.8°C 24.7°F-4.1°C 91% Calm Calm 1.0 mph1.6 kmh 29.86 in1011.2 mb 0.00 in0.0 mm 0.00 in0.0 mm 0.02 in0.5 mm
06:30 PM 27.0°F-2.8°C 24.7°F-4.1°C 91% Calm Calm 1.0 mph1.6 kmh 29.86 in1011.2 mb 0.00 in0.0 mm 0.00 in0.0 mm 0.02 in0.5 mm
06:45 PM 26.4°F-3.1°C 24.1°F-4.4°C 91% Calm Calm -- 29.86 in1011.2 mb 0.00 in0.0 mm 0.00 in0.0 mm 0.02 in0.5 mm
07:00 PM 26.2°F-3.2°C 24.0°F-4.4°C 91% Calm Calm 1.0 mph1.6 kmh 29.87 in1011.5 mb 0.00 in0.0 mm 0.00 in0.0 mm 0.02 in0.5 mm
07:15 PM 26.2°F-3.2°C 24.2°F-4.3°C 92% Calm Calm 2.0 mph3.2 kmh 29.88 in1011.9 mb 0.00 in0.0 mm 0.00 in0.0 mm 0.02 in0.5 mm
07:30 PM 26.2°F-3.2°C 24.2°F-4.3°C 92% Calm Calm 1.0 mph1.6 kmh 29.88 in1011.9 mb 0.00 in0.0 mm 0.00 in0.0 mm 0.02 in0.5 mm
07:45 PM 26.8°F-2.9°C 24.8°F-4.0°C 92% Calm Calm 2.0 mph3.2 kmh 29.88 in1011.9 mb 0.00 in0.0 mm 0.00 in0.0 mm 0.02 in0.5 mm
08:00 PM 27.5°F-2.5°C 25.7°F-3.5°C 93% 1.0 mph W1.6 kmh W 4.0 mph6.4 kmh 29.89 in1012.2 mb 0.00 in0.0 mm 0.00 in0.0 mm 0.02 in0.5 mm
08:15 PM 28.0°F-2.2°C 26.3°F-3.2°C 93% Calm Calm 2.0 mph3.2 kmh 29.89 in1012.2 mb 0.00 in0.0 mm 0.00 in0.0 mm 0.02 in0.5 mm
08:30 PM 28.8°F-1.8°C 27.0°F-2.8°C 93% Calm Calm 3.0 mph4.8 kmh 29.89 in1012.2 mb 0.00 in0.0 mm 0.00 in0.0 mm 0.02 in0.5 mm
08:45 PM 28.8°F-1.8°C 27.3°F-2.6°C 94% Calm Calm 1.0 mph1.6 kmh 29.90 in1012.5 mb 0.00 in0.0 mm 0.00 in0.0 mm 0.02 in0.5 mm
09:00 PM 28.8°F-1.8°C 27.0°F-2.8°C 93% Calm Calm -- 29.91 in1012.9 mb 0.00 in0.0 mm 0.00 in0.0 mm 0.02 in0.5 mm
09:15 PM 28.4°F-2.0°C 26.9°F-2.8°C 94% Calm Calm -- 29.91 in1012.9 mb 0.00 in0.0 mm 0.00 in0.0 mm 0.02 in0.5 mm
09:30 PM 28.6°F-1.9°C 27.1°F-2.7°C 94% Calm Calm -- 29.92 in1013.2 mb 0.00 in0.0 mm 0.00 in0.0 mm 0.02 in0.5 mm
09:45 PM 28.8°F-1.8°C 27.3°F-2.6°C 94% Calm Calm -- 29.92 in1013.2 mb 0.00 in0.0 mm 0.00 in0.0 mm 0.02 in0.5 mm
10:00 PM 28.8°F-1.8°C 27.3°F-2.6°C 94% Calm Calm 1.0 mph1.6 kmh 29.92 in1013.2 mb 0.00 in0.0 mm 0.00 in0.0 mm 0.02 in0.5 mm
10:15 PM 29.3°F-1.5°C 27.8°F-2.3°C 94% Calm Calm 4.0 mph6.4 kmh 29.93 in1013.5 mb 0.00 in0.0 mm 0.00 in0.0 mm 0.02 in0.5 mm
10:30 PM 29.7°F-1.3°C 28.1°F-2.2°C 94% Calm Calm 2.0 mph3.2 kmh 29.93 in1013.5 mb 0.00 in0.0 mm 0.00 in0.0 mm 0.02 in0.5 mm
10:45 PM 29.7°F-1.3°C 28.1°F-2.2°C 94% Calm Calm 1.0 mph1.6 kmh 29.94 in1013.9 mb 0.00 in0.0 mm 0.00 in0.0 mm 0.02 in0.5 mm
11:00 PM 30.2°F-1.0°C 28.9°F-1.7°C 95% Calm Calm 1.0 mph1.6 kmh 29.94 in1013.9 mb 0.00 in0.0 mm 0.00 in0.0 mm 0.02 in0.5 mm
11:15 PM 30.6°F-0.8°C 29.3°F-1.5°C 95% Calm Calm 4.0 mph6.4 kmh 29.94 in1013.9 mb 0.00 in0.0 mm 0.00 in0.0 mm 0.02 in0.5 mm
11:30 PM 30.7°F-0.7°C 29.5°F-1.4°C 95% 1.0 mph W1.6 kmh W 4.0 mph6.4 kmh 29.95 in1014.2 mb 0.00 in0.0 mm 0.00 in0.0 mm 0.02 in0.5 mm
11:45 PM 30.9°F-0.6°C 29.7°F-1.3°C 95% 2.0 mph W3.2 kmh W 6.0 mph9.7 kmh 29.95 in1014.2 mb 0.00 in0.0 mm 0.00 in0.0 mm 0.02 in0.5 mm